createdAt,value
2019-02-20T00:01:43.935Z,100.00
2019-02-20T00:04:13.449Z,100.00
2019-02-20T00:07:02.323Z,100.00
2019-02-20T00:09:31.833Z,100.00
2019-02-20T00:12:01.311Z,100.00
2019-02-20T00:14:30.866Z,100.00
2019-02-20T00:17:00.361Z,100.00
2019-02-20T00:19:29.859Z,100.00
2019-02-20T00:21:59.353Z,100.00
2019-02-20T00:24:28.861Z,100.00
2019-02-20T00:26:58.351Z,100.00
2019-02-20T00:29:27.931Z,100.00
2019-02-20T00:31:57.504Z,100.00
2019-02-20T00:34:27.007Z,100.00
2019-02-20T00:36:56.499Z,100.00
2019-02-20T00:39:26.024Z,100.00
2019-02-20T00:41:55.553Z,100.00
2019-02-20T00:44:29.485Z,100.00
2019-02-20T00:47:16.528Z,100.00
2019-02-20T00:49:46.036Z,100.00
2019-02-20T00:55:14.932Z,100.00
2019-02-20T00:57:44.447Z,100.00
2019-02-20T01:00:15.586Z,100.00
2019-02-20T01:02:45.067Z,100.00
2019-02-20T01:05:14.751Z,100.00
2019-02-20T01:07:44.269Z,100.00
2019-02-20T01:10:13.801Z,100.00
2019-02-20T01:12:43.367Z,100.00
2019-02-20T01:15:12.964Z,100.00
2019-02-20T01:17:42.483Z,100.00
2019-02-20T01:20:12.126Z,100.00
2019-02-20T01:22:41.651Z,100.00
2019-02-20T01:25:12.395Z,100.00
2019-02-20T01:27:41.914Z,100.00
2019-02-20T01:30:13.255Z,100.00
2019-02-20T01:32:42.757Z,100.00
2019-02-20T01:35:12.497Z,100.00
2019-02-20T01:37:42.030Z,100.00
2019-02-20T01:40:11.530Z,100.00
2019-02-20T01:42:41.041Z,100.00
2019-02-20T01:45:10.533Z,100.00
2019-02-20T01:47:40.050Z,100.00
2019-02-20T01:50:10.265Z,100.00
2019-02-20T01:52:39.828Z,100.00
2019-02-20T01:55:09.787Z,100.00
2019-02-20T01:57:39.275Z,100.00
2019-02-20T02:00:12.548Z,100.00
2019-02-20T02:02:42.042Z,100.00
2019-02-20T02:05:15.430Z,100.00
2019-02-20T02:07:42.863Z,100.00
2019-02-20T02:10:12.447Z,100.00
2019-02-20T02:12:41.934Z,100.00
2019-02-20T02:15:19.988Z,100.00
2019-02-20T02:17:42.720Z,100.00
2019-02-20T02:20:12.238Z,100.00
2019-02-20T02:22:41.729Z,100.00
2019-02-20T02:25:11.370Z,100.00
2019-02-20T02:27:40.868Z,100.00
2019-02-20T02:30:13.891Z,100.00
2019-02-20T02:32:44.614Z,100.00
2019-02-20T02:35:14.114Z,100.00
2019-02-20T02:37:43.600Z,100.00
2019-02-20T02:40:32.443Z,100.00
2019-02-20T02:43:21.259Z,100.00
2019-02-20T02:46:03.523Z,100.00
2019-02-20T02:48:33.039Z,100.00
2019-02-20T02:51:02.540Z,100.00
2019-02-20T02:53:32.033Z,100.00
2019-02-20T02:56:01.517Z,100.00
2019-02-20T02:58:31.026Z,100.00
2019-02-20T03:01:19.898Z,100.00
2019-02-20T03:03:49.419Z,100.00
2019-02-20T03:06:18.911Z,100.00
2019-02-20T03:12:22.460Z,100.00
2019-02-20T03:14:51.959Z,100.00
2019-02-20T03:17:21.450Z,100.00
2019-02-20T03:19:51.026Z,100.00
2019-02-20T03:22:20.519Z,100.00
2019-02-20T03:24:50.062Z,100.00
2019-02-20T03:27:38.916Z,100.00
2019-02-20T03:30:27.771Z,100.00
2019-02-20T03:32:57.288Z,100.00
2019-02-20T03:35:26.800Z,100.00
2019-02-20T03:37:56.280Z,100.00
2019-02-20T03:40:27.057Z,100.00
2019-02-20T03:42:56.541Z,100.00
2019-02-20T03:45:26.051Z,100.00
2019-02-20T03:47:55.539Z,100.00
2019-02-20T03:50:25.074Z,100.00
2019-02-20T03:52:55.711Z,100.00
2019-02-20T03:55:25.219Z,100.00
2019-02-20T03:57:54.705Z,100.00
2019-02-20T04:00:24.214Z,100.00
2019-02-20T04:02:53.704Z,100.00
2019-02-20T04:05:23.938Z,100.00
2019-02-20T04:07:53.432Z,100.00
2019-02-20T04:10:22.940Z,100.00
2019-02-20T04:12:52.451Z,100.00
2019-02-20T04:15:21.943Z,100.00
2019-02-20T04:17:52.073Z,100.00
2019-02-20T04:20:21.598Z,100.00
2019-02-20T04:22:51.127Z,100.00
2019-02-20T04:25:20.664Z,100.00
2019-02-20T04:27:50.170Z,100.00
2019-02-20T04:30:20.259Z,100.00
2019-02-20T04:33:09.108Z,100.00
2019-02-20T04:35:38.620Z,100.00
2019-02-20T04:38:08.342Z,100.00
2019-02-20T04:40:37.847Z,100.00
2019-02-20T04:43:07.361Z,100.00
2019-02-20T04:45:36.885Z,100.00
2019-02-20T04:48:06.406Z,100.00
2019-02-20T04:50:35.962Z,100.00
2019-02-20T04:53:05.466Z,100.00
2019-02-20T04:55:34.961Z,100.00
2019-02-20T04:58:19.172Z,100.00
2019-02-20T05:00:48.754Z,100.00
2019-02-20T05:03:37.602Z,100.00
2019-02-20T05:06:07.091Z,100.00
2019-02-20T05:08:36.608Z,100.00
2019-02-20T05:11:06.152Z,100.00
2019-02-20T05:13:35.658Z,100.00
2019-02-20T05:16:05.761Z,100.00
2019-02-20T05:18:54.603Z,100.00
2019-02-20T05:21:24.119Z,100.00
2019-02-20T05:23:53.620Z,100.00
2019-02-20T05:26:23.107Z,100.00
2019-02-20T05:28:52.622Z,100.00
2019-02-20T05:31:22.132Z,100.00
2019-02-20T05:33:51.631Z,100.00
2019-02-20T05:36:21.181Z,100.00
2019-02-20T05:38:50.720Z,100.00
2019-02-20T05:41:20.242Z,100.00
2019-02-20T05:43:49.721Z,100.00
2019-02-20T05:46:19.262Z,100.00
2019-02-20T05:48:50.759Z,100.00
2019-02-20T05:51:20.014Z,100.00
2019-02-20T05:53:49.550Z,100.00
2019-02-20T05:56:19.119Z,100.00
2019-02-20T05:58:48.638Z,100.00
2019-02-20T06:01:18.134Z,100.00
2019-02-20T06:03:47.657Z,100.00
2019-02-20T06:06:17.168Z,100.00
2019-02-20T06:08:46.644Z,100.00
2019-02-20T06:11:17.043Z,100.00
2019-02-20T06:13:46.999Z,100.00
2019-02-20T06:16:16.495Z,100.00
2019-02-20T06:19:17.808Z,100.00
2019-02-20T06:22:06.632Z,100.00
2019-02-20T06:24:43.921Z,100.00
2019-02-20T06:27:08.014Z,100.00
2019-02-20T06:29:37.509Z,100.00
2019-02-20T06:32:07.045Z,100.00
2019-02-20T06:34:55.900Z,100.00
2019-02-20T06:37:25.409Z,100.00
2019-02-20T06:39:54.945Z,100.00
2019-02-20T06:42:24.430Z,100.00
2019-02-20T06:44:54.654Z,100.00
2019-02-20T06:47:24.143Z,100.00
2019-02-20T06:49:53.653Z,100.00
2019-02-20T06:52:23.148Z,100.00
2019-02-20T06:54:54.204Z,100.00
2019-02-20T06:57:24.120Z,100.00
2019-02-20T07:00:33.846Z,100.00
2019-02-20T07:03:34.588Z,100.00
2019-02-20T07:06:20.445Z,100.00
2019-02-20T07:09:17.979Z,100.00
2019-02-20T07:11:55.011Z,100.00
2019-02-20T07:15:22.559Z,100.00
2019-02-20T07:18:28.252Z,100.00
2019-02-20T07:21:37.979Z,100.00
2019-02-20T07:24:31.135Z,100.00
2019-02-20T07:27:13.757Z,100.00
2019-02-20T07:29:44.739Z,100.00
2019-02-20T07:32:18.053Z,100.00
2019-02-20T07:34:47.553Z,100.00
2019-02-20T07:37:17.038Z,100.00
2019-02-20T07:39:46.557Z,100.00
2019-02-20T07:42:17.104Z,100.00
2019-02-20T07:45:26.833Z,100.00
2019-02-20T07:47:56.318Z,100.00
2019-02-20T07:50:25.830Z,100.00
2019-02-20T07:53:08.155Z,100.00
2019-02-20T07:55:37.703Z,100.00
2019-02-20T07:58:26.539Z,100.00
2019-02-20T08:01:15.391Z,100.00
2019-02-20T08:03:45.000Z,100.00
2019-02-20T08:06:14.520Z,100.00
2019-02-20T08:08:44.004Z,100.00
2019-02-20T08:11:13.537Z,100.00
2019-02-20T08:13:43.028Z,100.00
2019-02-20T08:16:12.548Z,100.00
2019-02-20T08:18:42.035Z,100.00
2019-02-20T08:21:11.552Z,100.00
2019-02-20T08:23:41.074Z,100.00
2019-02-20T08:26:10.581Z,100.00
2019-02-20T08:28:40.077Z,100.00
2019-02-20T08:31:09.588Z,100.00
2019-02-20T08:33:39.077Z,100.00
2019-02-20T08:36:08.587Z,100.00
2019-02-20T08:38:38.096Z,100.00
2019-02-20T08:41:07.580Z,100.00
2019-02-20T08:43:37.082Z,100.00
2019-02-20T08:46:06.603Z,100.00
2019-02-20T08:48:36.159Z,100.00
2019-02-20T08:51:05.692Z,100.00
2019-02-20T08:53:35.188Z,100.00
2019-02-20T08:56:05.965Z,100.00
2019-02-20T08:58:35.458Z,100.00
2019-02-20T09:01:05.042Z,100.00
2019-02-20T09:03:34.586Z,98.72
2019-02-20T09:06:04.090Z,100.00
2019-02-20T09:08:34.497Z,100.00
2019-02-20T09:11:03.994Z,92.66
2019-02-20T09:13:33.493Z,91.69
2019-02-20T09:16:03.001Z,93.56
2019-02-20T09:18:32.496Z,100.00
2019-02-20T09:21:02.797Z,98.81
2019-02-20T09:23:51.654Z,96.72
2019-02-20T09:26:34.520Z,95.89
2019-02-20T09:29:04.075Z,90.22
2019-02-20T09:31:33.577Z,90.39
2019-02-20T09:34:41.456Z,78.95
2019-02-20T09:37:10.971Z,75.59
2019-02-20T09:39:40.490Z,69.93
2019-02-20T09:42:29.321Z,64.60
2019-02-20T09:44:59.165Z,64.03
2019-02-20T09:47:28.684Z,59.67
2019-02-20T09:49:58.172Z,66.27
2019-02-20T09:52:27.699Z,78.20
2019-02-20T09:54:57.219Z,83.79
2019-02-20T09:57:26.713Z,87.98
2019-02-20T09:59:56.231Z,89.74
2019-02-20T10:02:25.787Z,92.05
2019-02-20T10:04:55.298Z,90.11
2019-02-20T10:07:24.815Z,84.76
2019-02-20T10:09:54.307Z,84.23
2019-02-20T10:12:23.814Z,66.30
2019-02-20T10:14:53.316Z,68.65
2019-02-20T10:17:22.863Z,74.09
2019-02-20T10:19:52.350Z,73.30
2019-02-20T10:22:21.868Z,73.36
2019-02-20T10:24:51.362Z,71.32
2019-02-20T10:27:20.970Z,67.37
2019-02-20T10:29:50.463Z,64.13
2019-02-20T10:32:19.955Z,64.09
2019-02-20T10:34:50.724Z,60.35
2019-02-20T10:37:20.273Z,56.17
2019-02-20T10:39:49.784Z,57.70
2019-02-20T10:42:19.325Z,57.52
2019-02-20T10:44:48.810Z,58.31
2019-02-20T10:47:19.575Z,68.95
2019-02-20T10:49:49.078Z,63.48
2019-02-20T10:52:18.596Z,59.70
2019-02-20T10:54:48.090Z,52.69
2019-02-20T10:57:17.640Z,51.89
2019-02-20T10:59:48.398Z,57.60
2019-02-20T11:02:18.047Z,58.25
2019-02-20T11:04:47.570Z,50.04
2019-02-20T11:07:17.112Z,52.88
2019-02-20T11:09:46.603Z,50.31
2019-02-20T11:12:17.111Z,50.08
2019-02-20T11:14:46.639Z,48.25
2019-02-20T11:17:16.159Z,52.21
2019-02-20T11:19:45.681Z,52.07
2019-02-20T11:22:15.194Z,48.16
2019-02-20T11:24:45.662Z,44.78
2019-02-20T11:27:15.190Z,52.48
2019-02-20T11:29:44.706Z,51.85
2019-02-20T11:32:14.209Z,45.41
2019-02-20T11:34:43.782Z,40.22
2019-02-20T11:37:13.964Z,40.69
2019-02-20T11:39:43.485Z,38.23
2019-02-20T11:42:13.030Z,39.99
2019-02-20T11:44:42.566Z,43.24
2019-02-20T11:47:12.086Z,40.98
2019-02-20T11:49:42.042Z,39.96
2019-02-20T11:52:11.557Z,43.14
2019-02-20T11:54:41.061Z,49.33
2019-02-20T11:57:10.847Z,54.45
2019-02-20T11:59:40.374Z,53.50
2019-02-20T12:02:10.445Z,50.97
2019-02-20T12:04:39.942Z,58.59
2019-02-20T12:07:09.463Z,57.81
2019-02-20T12:09:58.307Z,59.11
2019-02-20T12:12:27.825Z,52.23
2019-02-20T12:14:57.330Z,48.79
2019-02-20T12:17:26.869Z,49.45
2019-02-20T12:19:56.435Z,45.04
2019-02-20T12:22:25.952Z,47.62
2019-02-20T12:24:55.463Z,54.42
2019-02-20T12:27:25.067Z,45.75
2019-02-20T12:29:54.566Z,44.86
2019-02-20T12:32:24.111Z,49.35
2019-02-20T12:34:53.606Z,47.82
2019-02-20T12:37:25.019Z,45.55
2019-02-20T12:39:54.380Z,47.33
2019-02-20T12:42:23.907Z,48.15
2019-02-20T12:44:53.429Z,53.27
2019-02-20T12:47:22.948Z,52.57
2019-02-20T12:49:52.474Z,57.92
2019-02-20T12:52:21.990Z,57.40
2019-02-20T12:54:51.504Z,57.89
2019-02-20T12:57:21.083Z,64.91
2019-02-20T12:59:50.574Z,63.36
2019-02-20T13:02:20.089Z,65.61
2019-02-20T13:04:49.587Z,69.22
2019-02-20T13:07:19.133Z,68.27
2019-02-20T13:09:50.154Z,65.02
2019-02-20T13:12:19.785Z,62.79
2019-02-20T13:14:49.994Z,59.42
2019-02-20T13:17:19.529Z,56.24
2019-02-20T13:19:49.027Z,58.65
2019-02-20T13:22:18.592Z,60.23
2019-02-20T13:24:48.106Z,59.89
2019-02-20T13:27:22.779Z,60.39
2019-02-20T13:29:49.586Z,64.43
2019-02-20T13:32:19.135Z,66.33
2019-02-20T13:34:48.631Z,59.17
2019-02-20T13:37:18.158Z,57.66
2019-02-20T13:39:47.656Z,58.54
2019-02-20T13:42:17.453Z,69.04
2019-02-20T13:44:47.010Z,64.05
2019-02-20T13:47:16.563Z,68.89
2019-02-20T13:49:46.400Z,72.95
2019-02-20T13:52:35.268Z,75.02
2019-02-20T13:55:24.241Z,77.22
2019-02-20T13:57:53.768Z,79.49
2019-02-20T14:00:23.264Z,72.74
2019-02-20T14:02:52.786Z,69.90
2019-02-20T14:05:22.577Z,70.50
2019-02-20T14:07:52.106Z,71.56
2019-02-20T14:10:21.603Z,71.55
2019-02-20T14:12:51.202Z,74.69
2019-02-20T14:15:20.702Z,76.86
2019-02-20T14:17:50.255Z,79.28
2019-02-20T14:20:20.229Z,77.64
2019-02-20T14:22:50.628Z,78.70
2019-02-20T14:25:20.116Z,82.68
2019-02-20T14:27:49.629Z,82.51
2019-02-20T14:30:19.234Z,82.47
2019-02-20T14:32:48.774Z,86.23
2019-02-20T14:35:18.920Z,87.89
2019-02-20T14:37:48.437Z,92.45
2019-02-20T14:40:17.939Z,90.02
2019-02-20T14:42:47.508Z,90.75
2019-02-20T14:45:17.268Z,91.82
2019-02-20T14:47:47.257Z,94.68
2019-02-20T14:50:16.746Z,96.24
2019-02-20T14:52:46.255Z,97.71
2019-02-20T14:55:15.759Z,97.95
2019-02-20T14:57:45.286Z,95.02
2019-02-20T15:00:18.386Z,99.01
2019-02-20T15:02:47.893Z,99.59
2019-02-20T15:05:36.905Z,98.36
2019-02-20T15:08:06.439Z,97.85
2019-02-20T15:10:36.037Z,100.00
2019-02-20T15:13:05.589Z,100.00
2019-02-20T15:15:35.080Z,100.00
2019-02-20T15:18:04.675Z,100.00
2019-02-20T15:20:35.586Z,97.48
2019-02-20T15:23:05.253Z,96.12
2019-02-20T15:25:34.775Z,97.03
2019-02-20T15:28:04.758Z,98.39
2019-02-20T15:30:34.316Z,99.19
2019-02-20T15:33:03.849Z,94.83
2019-02-20T15:35:33.379Z,98.04
2019-02-20T15:38:02.910Z,98.29
2019-02-20T15:40:32.419Z,100.00
2019-02-20T15:43:01.938Z,100.00
2019-02-20T15:45:31.449Z,97.87
2019-02-20T15:48:00.969Z,100.00
2019-02-20T15:50:30.500Z,100.00
2019-02-20T15:52:59.991Z,100.00
2019-02-20T15:55:29.526Z,100.00
2019-02-20T15:57:59.111Z,100.00
2019-02-20T16:00:28.610Z,100.00
2019-02-20T16:02:58.439Z,100.00
2019-02-20T16:05:27.937Z,100.00
2019-02-20T16:07:57.456Z,100.00
2019-02-20T16:10:26.987Z,100.00
2019-02-20T16:12:56.502Z,100.00
2019-02-20T16:15:25.988Z,100.00
2019-02-20T16:17:55.825Z,100.00
2019-02-20T16:20:25.336Z,100.00
2019-02-20T16:22:54.838Z,100.00
2019-02-20T16:25:24.333Z,100.00
2019-02-20T16:27:53.899Z,100.00
2019-02-20T16:30:23.410Z,100.00
2019-02-20T16:32:54.495Z,100.00
2019-02-20T16:35:23.990Z,100.00
2019-02-20T16:37:54.010Z,100.00
2019-02-20T16:40:42.870Z,100.00
2019-02-20T16:43:24.903Z,100.00
2019-02-20T16:45:54.390Z,100.00
2019-02-20T16:48:23.961Z,100.00
2019-02-20T16:50:53.448Z,100.00
2019-02-20T16:53:23.025Z,100.00
2019-02-20T16:55:52.560Z,100.00
2019-02-20T16:58:22.084Z,100.00
2019-02-20T17:00:51.691Z,100.00
2019-02-20T17:03:40.562Z,100.00
2019-02-20T17:06:22.850Z,100.00
2019-02-20T17:09:30.793Z,100.00
2019-02-20T17:12:01.507Z,100.00
2019-02-20T17:14:31.114Z,100.00
2019-02-20T17:17:19.943Z,100.00
2019-02-20T17:20:29.721Z,100.00
2019-02-20T17:22:59.287Z,100.00
2019-02-20T17:25:28.793Z,100.00
2019-02-20T17:28:05.564Z,100.00
2019-02-20T17:30:29.533Z,100.00
2019-02-20T17:32:59.161Z,100.00
2019-02-20T17:35:28.780Z,100.00
2019-02-20T17:37:58.263Z,100.00
2019-02-20T17:40:47.121Z,100.00
2019-02-20T17:46:31.020Z,100.00
2019-02-20T17:49:00.544Z,100.00
2019-02-20T17:51:30.052Z,100.00
2019-02-20T17:53:59.587Z,100.00
2019-02-20T17:56:29.073Z,100.00
2019-02-20T17:59:17.932Z,100.00
2019-02-20T18:01:47.425Z,100.00
2019-02-20T18:04:18.048Z,100.00
2019-02-20T18:06:47.534Z,100.00
2019-02-20T18:09:17.060Z,100.00
2019-02-20T18:11:46.582Z,100.00
2019-02-20T18:14:16.120Z,100.00
2019-02-20T18:17:05.679Z,100.00
2019-02-20T18:19:35.209Z,100.00
2019-02-20T18:22:04.744Z,100.00
2019-02-20T18:24:34.258Z,100.00
2019-02-20T18:27:03.802Z,100.00
2019-02-20T18:29:33.308Z,100.00
2019-02-20T18:32:02.813Z,100.00
2019-02-20T18:34:32.333Z,100.00
2019-02-20T18:37:02.309Z,100.00
2019-02-20T18:39:31.847Z,100.00
2019-02-20T18:42:01.317Z,100.00
2019-02-20T18:44:30.855Z,100.00
2019-02-20T18:47:00.371Z,100.00
2019-02-20T18:49:30.487Z,100.00
2019-02-20T18:51:59.991Z,100.00
2019-02-20T18:54:29.517Z,100.00
2019-02-20T18:56:59.078Z,100.00
2019-02-20T18:59:28.525Z,100.00
2019-02-20T19:01:58.654Z,100.00
2019-02-20T19:04:28.730Z,100.00
2019-02-20T19:06:58.211Z,100.00
2019-02-20T19:09:27.788Z,100.00
2019-02-20T19:12:10.717Z,100.00
2019-02-20T19:15:14.775Z,100.00
2019-02-20T19:17:54.720Z,100.00
2019-02-20T19:20:41.442Z,100.00
2019-02-20T19:23:32.042Z,100.00
2019-02-20T19:26:20.366Z,100.00
2019-02-20T19:29:19.617Z,100.00
2019-02-20T19:32:14.648Z,100.00
2019-02-20T19:35:17.000Z,100.00
2019-02-20T19:38:09.608Z,100.00
2019-02-20T19:41:02.096Z,100.00
2019-02-20T19:43:48.017Z,100.00
2019-02-20T19:47:02.568Z,100.00
2019-02-20T19:49:45.363Z,100.00
2019-02-20T19:52:51.146Z,100.00
2019-02-20T19:55:49.839Z,100.00
2019-02-20T19:58:57.764Z,100.00
2019-02-20T20:02:04.101Z,100.00
2019-02-20T20:04:56.639Z,100.00
2019-02-20T20:08:01.584Z,100.00
2019-02-20T20:11:03.998Z,100.00
2019-02-20T20:13:43.948Z,100.00
2019-02-20T20:17:02.647Z,100.00
2019-02-20T20:19:54.927Z,100.00
2019-02-20T20:23:06.273Z,100.00
2019-02-20T20:26:18.194Z,100.00
2019-02-20T20:29:13.348Z,100.00
2019-02-20T20:31:56.027Z,100.00
2019-02-20T20:34:33.042Z,100.00
2019-02-20T20:37:10.150Z,100.00
2019-02-20T20:39:59.029Z,100.00
2019-02-20T20:43:01.596Z,100.00
2019-02-20T20:45:57.826Z,100.00
2019-02-20T20:48:52.480Z,100.00
2019-02-20T20:51:59.439Z,100.00
2019-02-20T20:54:39.310Z,100.00
2019-02-20T20:58:06.829Z,100.00
2019-02-20T21:01:36.568Z,100.00
2019-02-20T21:04:23.870Z,100.00
2019-02-20T21:07:51.422Z,100.00
2019-02-20T21:10:40.204Z,100.00
2019-02-20T21:13:37.847Z,100.00
2019-02-20T21:16:47.572Z,100.00
2019-02-20T21:19:49.588Z,100.00
2019-02-20T21:22:38.308Z,100.00
2019-02-20T21:25:27.200Z,100.00
2019-02-20T21:28:37.279Z,100.00
2019-02-20T21:31:30.913Z,100.00
2019-02-20T21:34:13.824Z,100.00
2019-02-20T21:36:50.483Z,100.00
2019-02-20T21:39:48.270Z,100.00
2019-02-20T21:42:34.549Z,100.00
2019-02-20T21:45:31.469Z,100.00
2019-02-20T21:48:24.809Z,100.00
2019-02-20T21:51:52.308Z,100.00
2019-02-20T21:54:44.323Z,100.00
2019-02-20T21:57:23.937Z,100.00
2019-02-20T22:00:04.069Z,100.00
2019-02-20T22:02:46.942Z,100.00
2019-02-20T22:05:26.676Z,100.00
2019-02-20T22:08:09.025Z,100.00
2019-02-20T22:11:09.757Z,100.00
2019-02-20T22:14:00.324Z,100.00
2019-02-20T22:16:46.055Z,100.00
2019-02-20T22:19:41.134Z,100.00
2019-02-20T22:22:39.095Z,100.00
2019-02-20T22:25:32.531Z,100.00
2019-02-20T22:29:00.045Z,100.00
2019-02-20T22:32:00.681Z,100.00
2019-02-20T22:34:49.420Z,100.00
2019-02-20T22:37:35.290Z,100.00
2019-02-20T22:40:33.259Z,100.00
2019-02-20T22:43:34.322Z,100.00
2019-02-20T22:46:26.025Z,100.00
2019-02-20T22:49:08.497Z,100.00
2019-02-20T22:51:48.584Z,100.00
2019-02-20T22:55:00.317Z,100.00
2019-02-20T22:57:40.020Z,100.00
2019-02-20T23:01:03.403Z,100.00
2019-02-20T23:03:55.467Z,100.00
2019-02-20T23:06:32.820Z,100.00
2019-02-20T23:09:18.415Z,100.00
2019-02-20T23:12:28.136Z,100.00
2019-02-20T23:14:58.883Z,100.00
2019-02-20T23:17:31.158Z,100.00
2019-02-20T23:20:00.666Z,100.00
2019-02-20T23:22:30.164Z,100.00
2019-02-20T23:24:59.684Z,100.00
2019-02-20T23:27:29.191Z,100.00
2019-02-20T23:30:18.053Z,100.00
2019-02-20T23:33:07.005Z,100.00
2019-02-20T23:35:36.492Z,100.00
2019-02-20T23:38:06.074Z,100.00
2019-02-20T23:40:35.561Z,100.00
2019-02-20T23:43:05.201Z,100.00
2019-02-20T23:45:34.810Z,100.00
2019-02-20T23:48:04.392Z,100.00
2019-02-20T23:50:33.882Z,100.00
2019-02-20T23:53:03.403Z,100.00
2019-02-20T23:55:32.892Z,100.00
2019-02-20T23:58:02.384Z,100.00
